Terminal Aerodrome Forecast
Issued by NWS

Home | Current Version | Previous Version | Text Only | Print | Product List | Glossary On
Versions: 1 2 3 4 5 6 7 8 9 10 11 12 13 14 15
000
FTUS41 KPHI 261700
TAFMIV
TAF
KMIV 261720Z 2618/2718 21005KT P6SM SCT050
      TEMPO 2618/2620 BKN050
     FM270200 17005KT P6SM SCT040 BKN150
     FM270600 VRB02KT 4SM BR BKN040
      TEMPO 2709/2713 3SM -SHRA BR
     FM271300 22009KT P6SM BKN045=

USA.gov is the U.S. government's official web portal to all federal, state and local government web resources and services.